Time;durP1;ratioP1;P1;durP2;ratioP2;P2;SDS_P1;SDS_P2;PMS_P1;PMS_P2;Temp;Humidity;BMP_temperature;BMP_pressure;BME280_temperature;BME280_humidity;BME280_pressure;Samples;Min_cycle;Max_cycle;Signal;HPM_P1;HPM_P2
2021/12/19 00:01:20;;;;;;;17.10;6.28;;;;;;;;;;8419849;28;20047;-74
2021/12/19 00:09:45;;;;;;;15.77;6.88;;;;;;;;;;8419184;28;20286;-74
2021/12/19 00:13:49;;;;;;;15.25;6.13;;;;;;;;;;8401446;28;20064;-74
2021/12/19 00:17:52;;;;;;;14.57;6.72;;;;;;;;;;8400507;28;20238;-74
2021/12/19 00:21:57;;;;;;;14.93;6.88;;;;;;;;;;8419252;28;20040;-74
2021/12/19 00:26:01;;;;;;;15.15;6.78;;;;;;;;;;8418224;28;20167;-74
2021/12/19 00:30:05;;;;;;;13.73;6.03;;;;;;;;;;8418405;28;20233;-74
2021/12/19 00:34:08;;;;;;;15.43;6.50;;;;;;;;;;8400838;28;20207;-74
2021/12/19 00:38:21;;;;;;;16.15;6.75;;;;;;;;;;8418344;28;20055;-75
2021/12/19 00:42:29;;;;;;;15.95;6.22;;;;;;;;;;8417502;28;20059;-74
2021/12/19 00:46:42;;;;;;;15.65;6.53;;;;;;;;;;8399649;28;20156;-74
2021/12/19 00:50:46;;;;;;;12.13;6.00;;;;;;;;;;8417925;28;20045;-74
2021/12/19 00:54:51;;;;;;;15.45;7.20;;;;;;;;;;8399981;28;20055;-74
2021/12/19 00:58:54;;;;;;;12.75;6.10;;;;;;;;;;8417665;28;20029;-74
2021/12/19 01:02:59;;;;;;;14.13;6.65;;;;;;;;;;8399376;28;20049;-74
2021/12/19 01:07:03;;;;;;;13.63;6.75;;;;;;;;;;8398923;28;20081;-74
2021/12/19 01:11:07;;;;;;;12.18;6.38;;;;;;;;;;8399251;28;20045;-74
2021/12/19 01:15:13;;;;;;;14.70;6.55;;;;;;;;;;8399472;28;20051;-74
2021/12/19 01:19:16;;;;;;;9.00;4.75;;;;;;;;;;8398979;28;20317;-74
2021/12/19 01:23:21;;;;;;;13.73;5.70;;;;;;;;;;8416683;28;20105;-74
2021/12/19 01:27:29;;;;;;;11.70;5.30;;;;;;;;;;8416776;28;20066;-74
2021/12/19 01:31:33;;;;;;;13.18;6.07;;;;;;;;;;8416620;28;20045;-74
2021/12/19 01:35:36;;;;;;;12.80;5.57;;;;;;;;;;8416100;28;20046;-74
2021/12/19 01:39:40;;;;;;;10.23;5.07;;;;;;;;;;8398344;28;20115;-74
2021/12/19 01:43:47;;;;;;;13.40;5.43;;;;;;;;;;8398144;28;20115;-74
2021/12/19 01:47:54;;;;;;;8.85;4.28;;;;;;;;;;8415449;28;20059;-74
2021/12/19 01:51:57;;;;;;;10.55;5.10;;;;;;;;;;8415943;28;20045;-74
2021/12/19 01:56:03;;;;;;;8.75;4.13;;;;;;;;;;8414934;28;20041;-74
2021/12/19 02:00:17;;;;;;;8.90;4.60;;;;;;;;;;8415726;28;20336;-74
2021/12/19 02:04:23;;;;;;;10.05;4.72;;;;;;;;;;8397973;28;20313;-74
2021/12/19 02:08:28;;;;;;;10.90;5.00;;;;;;;;;;8415839;28;20067;-74
2021/12/19 02:12:31;;;;;;;11.15;4.50;;;;;;;;;;8416336;28;20060;-74
2021/12/19 02:16:38;;;;;;;10.02;4.43;;;;;;;;;;8415022;28;20047;-74
2021/12/19 02:20:47;;;;;;;11.15;5.18;;;;;;;;;;8415236;28;20051;-74
2021/12/19 02:24:54;;;;;;;9.02;4.43;;;;;;;;;;8414676;28;20068;-74
2021/12/19 02:29:03;;;;;;;9.98;5.00;;;;;;;;;;8415120;28;20044;-74
2021/12/19 02:33:21;;;;;;;12.18;6.07;;;;;;;;;;8397131;28;20082;-74
2021/12/19 02:37:55;;;;;;;10.32;5.18;;;;;;;;;;8396820;28;20052;-74
2021/12/19 02:50:46;;;;;;;8.90;4.05;;;;;;;;;;8396474;28;20041;-74
2021/12/19 02:54:51;;;;;;;6.53;3.58;;;;;;;;;;8414336;28;20280;-73
2021/12/19 02:58:55;;;;;;;6.57;3.63;;;;;;;;;;8414619;28;20041;-73
2021/12/19 03:02:59;;;;;;;7.30;4.00;;;;;;;;;;8414463;28;20044;-73
2021/12/19 03:07:02;;;;;;;8.20;3.67;;;;;;;;;;8419739;28;20055;-74
2021/12/19 03:19:59;;;;;;;7.60;3.60;;;;;;;;;;8420709;28;20103;-73
2021/12/19 03:24:02;;;;;;;9.68;4.32;;;;;;;;;;8420807;28;20052;-74
2021/12/19 03:28:09;;;;;;;9.35;4.35;;;;;;;;;;8420347;28;20048;-73
2021/12/19 03:32:13;;;;;;;8.98;4.80;;;;;;;;;;8420728;28;20064;-74
2021/12/19 03:36:16;;;;;;;9.50;4.72;;;;;;;;;;8420308;28;20044;-73
2021/12/19 03:40:23;;;;;;;9.05;4.68;;;;;;;;;;8402585;28;20048;-73
2021/12/19 03:44:37;;;;;;;8.25;3.72;;;;;;;;;;8402345;28;20053;-73
2021/12/19 03:48:41;;;;;;;8.95;4.20;;;;;;;;;;8419609;28;20048;-74
2021/12/19 03:52:45;;;;;;;9.23;4.60;;;;;;;;;;8419717;28;20048;-74
2021/12/19 03:56:48;;;;;;;8.10;3.92;;;;;;;;;;8419384;28;20047;-74
2021/12/19 04:00:58;;;;;;;10.13;4.35;;;;;;;;;;8419030;28;20047;-74
2021/12/19 04:05:02;;;;;;;8.38;4.18;;;;;;;;;;8419105;28;20036;-74
2021/12/19 04:09:05;;;;;;;8.50;4.63;;;;;;;;;;8419120;28;20055;-74
2021/12/19 04:13:09;;;;;;;12.10;6.43;;;;;;;;;;8401795;28;20036;-74
2021/12/19 04:17:14;;;;;;;7.88;4.10;;;;;;;;;;8399709;28;20060;-74
2021/12/19 04:21:17;;;;;;;9.02;4.07;;;;;;;;;;8418789;28;20074;-74
2021/12/19 04:25:22;;;;;;;10.68;5.07;;;;;;;;;;8400618;28;20330;-74
2021/12/19 04:29:25;;;;;;;9.75;4.35;;;;;;;;;;8418523;28;20135;-74
2021/12/19 04:33:31;;;;;;;8.55;4.18;;;;;;;;;;8418187;28;20044;-74
2021/12/19 04:38:02;;;;;;;10.13;3.95;;;;;;;;;;8418912;28;20041;-75
2021/12/19 04:42:58;;;;;;;10.50;5.72;;;;;;;;;;8400251;28;20056;-74
2021/12/19 04:51:25;;;;;;;7.22;4.13;;;;;;;;;;8400451;28;20080;-74
2021/12/19 05:00:02;;;;;;;10.10;4.80;;;;;;;;;;8404777;28;20058;-75
2021/12/19 05:04:14;;;;;;;9.07;4.38;;;;;;;;;;8417314;28;20052;-74
2021/12/19 05:17:08;;;;;;;9.73;4.25;;;;;;;;;;8399424;28;20053;-75
2021/12/19 05:21:16;;;;;;;9.68;4.70;;;;;;;;;;8417365;28;20040;-75
2021/12/19 05:25:21;;;;;;;8.35;4.38;;;;;;;;;;8416994;28;20107;-75
2021/12/19 05:29:24;;;;;;;11.18;6.28;;;;;;;;;;8416431;28;20051;-75
2021/12/19 05:33:29;;;;;;;9.45;5.03;;;;;;;;;;8415996;28;20060;-75
2021/12/19 05:46:14;;;;;;;10.30;5.90;;;;;;;;;;8415947;28;20356;-74
2021/12/19 05:50:19;;;;;;;11.40;6.72;;;;;;;;;;8398134;28;20341;-74
2021/12/19 05:54:22;;;;;;;10.70;4.97;;;;;;;;;;8398160;28;20044;-74
2021/12/19 05:58:27;;;;;;;15.05;7.95;;;;;;;;;;8391645;28;20094;-85
2021/12/19 06:02:31;;;;;;;12.63;6.22;;;;;;;;;;8414150;28;20040;-75
2021/12/19 06:06:34;;;;;;;15.80;6.88;;;;;;;;;;8395324;28;20226;-75
2021/12/19 06:10:37;;;;;;;12.80;7.30;;;;;;;;;;8415910;28;20047;-74
2021/12/19 06:14:42;;;;;;;19.75;9.00;;;;;;;;;;8415105;28;20045;-75
2021/12/19 06:18:46;;;;;;;16.50;8.45;;;;;;;;;;8415235;28;20051;-75
2021/12/19 06:22:50;;;;;;;19.60;9.48;;;;;;;;;;8414994;28;20078;-75
2021/12/19 06:26:53;;;;;;;21.35;9.30;;;;;;;;;;8414856;28;20040;-74
2021/12/19 06:30:58;;;;;;;21.95;10.60;;;;;;;;;;8415555;28;20103;-74
2021/12/19 06:35:10;;;;;;;20.50;8.30;;;;;;;;;;8414779;28;20041;-74
2021/12/19 06:39:13;;;;;;;;;;;;;;;;;;8397370;28;20111;-74
2021/12/19 06:43:16;;;;;;;32.38;10.15;;;;;;;;;;8415082;28;19923;-74
2021/12/19 06:47:26;;;;;;;23.58;10.68;;;;;;;;;;8414677;28;20060;-74
2021/12/19 06:51:40;;;;;;;23.73;10.15;;;;;;;;;;8396622;28;20120;-73
2021/12/19 06:55:45;;;;;;;22.70;10.17;;;;;;;;;;8396870;28;20316;-73
2021/12/19 06:59:49;;;;;;;30.08;8.95;;;;;;;;;;8414565;28;20040;-73
2021/12/19 07:03:54;;;;;;;17.40;9.43;;;;;;;;;;8396765;28;20067;-73
2021/12/19 07:08:00;;;;;;;17.52;7.57;;;;;;;;;;8396424;28;20064;-73
2021/12/19 07:12:05;;;;;;;19.65;8.50;;;;;;;;;;8414987;28;20050;-73
2021/12/19 07:16:08;;;;;;;20.65;8.40;;;;;;;;;;8413972;28;20379;-73
2021/12/19 07:20:18;;;;;;;18.58;8.38;;;;;;;;;;8396785;28;20064;-73
2021/12/19 07:24:25;;;;;;;15.10;7.13;;;;;;;;;;8396458;28;20045;-73
2021/12/19 07:28:28;;;;;;;13.82;7.47;;;;;;;;;;8414150;28;20074;-74
2021/12/19 07:32:33;;;;;;;12.98;6.82;;;;;;;;;;8414406;28;20051;-75
2021/12/19 07:36:41;;;;;;;22.17;10.38;;;;;;;;;;8414507;28;20381;-74
2021/12/19 07:40:47;;;;;;;15.50;7.60;;;;;;;;;;8414717;28;20047;-82
2021/12/19 07:44:51;;;;;;;14.70;8.40;;;;;;;;;;8414229;28;20357;-74
2021/12/19 07:48:58;;;;;;;20.35;9.52;;;;;;;;;;8414564;28;20060;-74
2021/12/19 07:53:04;;;;;;;16.90;7.90;;;;;;;;;;8417627;28;20273;-74
2021/12/19 07:57:07;;;;;;;16.13;8.02;;;;;;;;;;8402972;28;20111;-74
2021/12/19 08:01:14;;;;;;;14.07;7.10;;;;;;;;;;8402894;28;20222;-83
2021/12/19 08:05:24;;;;;;;18.98;9.95;;;;;;;;;;8419350;28;20329;-74
2021/12/19 08:09:41;;;;;;;14.98;8.13;;;;;;;;;;8419277;28;20062;-74
2021/12/19 08:13:44;;;;;;;15.13;7.25;;;;;;;;;;8420418;28;20045;-74
2021/12/19 08:17:52;;;;;;;16.40;8.27;;;;;;;;;;8421379;28;20044;-74
2021/12/19 08:21:55;;;;;;;11.18;6.47;;;;;;;;;;8401388;28;20052;-74
2021/12/19 08:26:04;;;;;;;17.40;7.97;;;;;;;;;;8400948;28;20233;-73
2021/12/19 08:30:11;;;;;;;16.00;7.95;;;;;;;;;;8419061;28;20056;-75
2021/12/19 08:34:15;;;;;;;13.18;6.28;;;;;;;;;;8418404;28;20261;-74
2021/12/19 08:38:19;;;;;;;14.77;6.47;;;;;;;;;;8400959;28;20271;-74
2021/12/19 08:42:28;;;;;;;13.82;6.57;;;;;;;;;;8400563;28;20202;-73
2021/12/19 08:46:35;;;;;;;17.13;6.65;;;;;;;;;;8417686;28;20059;-73
2021/12/19 08:50:39;;;;;;;16.98;6.90;;;;;;;;;;8418616;28;20048;-80
2021/12/19 08:54:43;;;;;;;16.63;6.38;;;;;;;;;;8399814;28;20112;-73
2021/12/19 08:58:50;;;;;;;12.75;6.60;;;;;;;;;;8417659;28;20037;-73
2021/12/19 09:02:55;;;;;;;11.85;6.72;;;;;;;;;;8417299;28;20044;-74
2021/12/19 09:07:01;;;;;;;15.38;6.80;;;;;;;;;;8399686;28;20048;-74
2021/12/19 09:11:05;;;;;;;15.50;7.15;;;;;;;;;;8417300;28;20183;-74
2021/12/19 09:15:12;;;;;;;15.13;7.50;;;;;;;;;;8399692;28;20398;-74
2021/12/19 09:19:16;;;;;;;15.27;6.25;;;;;;;;;;8399010;28;20071;-74
2021/12/19 09:23:24;;;;;;;15.93;6.70;;;;;;;;;;8416811;28;20047;-74
2021/12/19 09:27:27;;;;;;;17.35;6.43;;;;;;;;;;8416889;28;20325;-73
2021/12/19 09:31:36;;;;;;;19.27;6.45;;;;;;;;;;8398409;28;20059;-73
2021/12/19 09:35:40;;;;;;;17.63;7.32;;;;;;;;;;8399114;28;20052;-74
2021/12/19 09:39:44;;;;;;;14.13;5.57;;;;;;;;;;8398922;28;20064;-74
2021/12/19 09:43:48;;;;;;;11.60;4.55;;;;;;;;;;8397887;28;20045;-74
2021/12/19 09:48:02;;;;;;;13.18;6.82;;;;;;;;;;8387466;28;20052;-74
2021/12/19 09:52:14;;;;;;;14.50;5.50;;;;;;;;;;8399072;28;20108;-73
2021/12/19 09:56:28;;;;;;;13.85;6.47;;;;;;;;;;8416006;28;20045;-74
2021/12/19 10:00:32;;;;;;;12.63;6.35;;;;;;;;;;8415688;28;20040;-74
2021/12/19 10:04:41;;;;;;;15.93;7.15;;;;;;;;;;8415808;28;20154;-75
2021/12/19 10:08:53;;;;;;;16.33;8.40;;;;;;;;;;8414800;28;20214;-75
2021/12/19 10:13:04;;;;;;;14.18;7.40;;;;;;;;;;8407656;28;20050;-75
2021/12/19 10:17:17;;;;;;;10.13;5.90;;;;;;;;;;8404044;28;20071;-75
2021/12/19 10:21:25;;;;;;;13.25;6.40;;;;;;;;;;8408343;28;20041;-74
2021/12/19 10:25:35;;;;;;;16.33;8.52;;;;;;;;;;8396250;28;20321;-75
2021/12/19 10:29:46;;;;;;;15.27;8.25;;;;;;;;;;8393570;28;20230;-76
2021/12/19 10:33:50;;;;;;;15.93;8.75;;;;;;;;;;8419717;28;20310;-74
2021/12/19 10:37:55;;;;;;;16.85;7.93;;;;;;;;;;8416916;28;20048;-74
2021/12/19 10:42:01;;;;;;;14.45;8.15;;;;;;;;;;8416512;28;20104;-73
2021/12/19 10:46:07;;;;;;;19.05;11.18;;;;;;;;;;8393527;28;20159;-74
2021/12/19 10:50:14;;;;;;;20.23;11.48;;;;;;;;;;8412345;28;20048;-74
2021/12/19 10:54:21;;;;;;;19.30;8.75;;;;;;;;;;8410188;28;20045;-81
2021/12/19 10:58:28;;;;;;;26.23;12.93;;;;;;;;;;8416965;28;20047;-81
2021/12/19 11:02:37;;;;;;;26.20;11.00;;;;;;;;;;8415260;28;20051;-78
2021/12/19 11:06:43;;;;;;;20.35;9.50;;;;;;;;;;8406761;28;20056;-74
2021/12/19 11:10:49;;;;;;;20.48;9.27;;;;;;;;;;8391589;28;20075;-73
2021/12/19 11:14:52;;;;;;;21.13;9.52;;;;;;;;;;8407660;28;20044;-74
2021/12/19 11:18:56;;;;;;;16.98;8.05;;;;;;;;;;8372008;28;20048;-74
2021/12/19 11:23:00;;;;;;;16.48;8.43;;;;;;;;;;8397820;28;20044;-75
2021/12/19 11:27:09;;;;;;;15.80;7.60;;;;;;;;;;8399649;28;20123;-80
2021/12/19 11:31:16;;;;;;;16.90;8.55;;;;;;;;;;8411298;28;20045;-75
2021/12/19 11:35:24;;;;;;;14.55;7.72;;;;;;;;;;8395771;28;20045;-75
2021/12/19 11:39:30;;;;;;;12.55;6.82;;;;;;;;;;8415831;28;20040;-74
2021/12/19 11:43:43;;;;;;;20.33;9.90;;;;;;;;;;8417854;28;20040;-79
2021/12/19 11:47:51;;;;;;;20.85;9.02;;;;;;;;;;8417254;28;20053;-74
2021/12/19 11:52:26;;;;;;;19.23;9.45;;;;;;;;;;8415638;28;20116;-75
2021/12/19 11:56:31;;;;;;;15.77;8.02;;;;;;;;;;8414740;28;20040;-81
2021/12/19 12:00:44;;;;;;;17.23;8.88;;;;;;;;;;8394426;28;20107;-76
2021/12/19 12:05:21;;;;;;;16.60;9.10;;;;;;;;;;8413460;28;20052;-75
2021/12/19 12:09:34;;;;;;;14.93;8.25;;;;;;;;;;8407563;28;20507;-81
2021/12/19 12:13:39;;;;;;;15.23;7.80;;;;;;;;;;8398807;28;20044;-75
2021/12/19 12:17:53;;;;;;;16.35;8.30;;;;;;;;;;8398187;28;20041;-79
2021/12/19 12:21:56;;;;;;;18.88;9.65;;;;;;;;;;8418472;28;20085;-78
2021/12/19 12:26:24;;;;;;;15.10;8.85;;;;;;;;;;8405501;28;20044;-74
2021/12/19 12:30:31;;;;;;;15.50;7.30;;;;;;;;;;8388125;28;20041;-74
2021/12/19 12:34:38;;;;;;;13.60;6.43;;;;;;;;;;8412715;28;20075;-74
2021/12/19 12:38:45;;;;;;;13.82;7.15;;;;;;;;;;8390589;28;20043;-74
2021/12/19 12:43:05;;;;;;;17.65;8.55;;;;;;;;;;8381897;28;20045;-74
2021/12/19 12:47:09;;;;;;;13.57;7.20;;;;;;;;;;8394502;28;20109;-74
2021/12/19 12:51:31;;;;;;;21.40;9.20;;;;;;;;;;8381906;28;20178;-74
2021/12/19 12:55:35;;;;;;;14.85;7.32;;;;;;;;;;8387929;28;20056;-82
2021/12/19 12:59:41;;;;;;;20.08;8.90;;;;;;;;;;8416972;28;20040;-81
2021/12/19 13:04:03;;;;;;;20.80;8.48;;;;;;;;;;8395599;28;20115;-78
2021/12/19 13:08:21;;;;;;;14.55;9.40;;;;;;;;;;8381561;28;20117;-74
2021/12/19 13:12:26;;;;;;;19.40;11.50;;;;;;;;;;8418276;28;20040;-74
2021/12/19 13:16:30;;;;;;;18.02;10.77;;;;;;;;;;8413711;28;20073;-74
2021/12/19 13:20:36;;;;;;;21.45;10.75;;;;;;;;;;8407747;28;20041;-74
2021/12/19 13:24:46;;;;;;;27.63;13.40;;;;;;;;;;8402249;28;20060;-74
2021/12/19 13:28:50;;;;;;;48.53;26.55;;;;;;;;;;8389291;28;20045;-75
2021/12/19 13:32:55;;;;;;;71.60;30.17;;;;;;;;;;8410095;28;20058;-76
2021/12/19 13:37:09;;;;;;;54.45;21.75;;;;;;;;;;8387425;28;20041;-76
2021/12/19 13:41:15;;;;;;;117.38;39.70;;;;;;;;;;8416836;28;20307;-75
2021/12/19 13:45:37;;;;;;;110.03;34.95;;;;;;;;;;8390774;28;20342;-74
2021/12/19 13:49:57;;;;;;;34.35;14.07;;;;;;;;;;8417968;28;20110;-76
2021/12/19 13:54:10;;;;;;;29.50;13.00;;;;;;;;;;8410115;28;20285;-74
2021/12/19 13:58:31;;;;;;;28.27;12.57;;;;;;;;;;8400405;28;20049;-79
2021/12/19 14:02:52;;;;;;;35.38;15.38;;;;;;;;;;8415777;28;20143;-73
2021/12/19 14:07:10;;;;;;;;;;;;;;;;;;8416822;28;20044;-75
2021/12/19 14:11:25;;;;;;;32.75;13.80;;;;;;;;;;8414430;28;19916;-76
2021/12/19 14:15:37;;;;;;;33.95;15.68;;;;;;;;;;8408799;28;20048;-82
2021/12/19 14:20:01;;;;;;;35.70;16.70;;;;;;;;;;8412250;28;20103;-78
2021/12/19 14:24:19;;;;;;;47.63;19.55;;;;;;;;;;8400866;28;20093;-75
2021/12/19 14:28:32;;;;;;;63.05;23.83;;;;;;;;;;8381678;28;20055;-74
2021/12/19 14:32:46;;;;;;;45.47;18.17;;;;;;;;;;8399195;28;20340;-75
2021/12/19 14:36:50;;;;;;;137.88;47.55;;;;;;;;;;8393924;28;20046;-75
2021/12/19 14:41:02;;;;;;;96.63;31.08;;;;;;;;;;8389277;28;20041;-75
2021/12/19 14:45:13;;;;;;;105.00;32.13;;;;;;;;;;8391201;28;20048;-74
2021/12/19 14:49:22;;;;;;;37.83;16.00;;;;;;;;;;8362689;28;20068;-74
2021/12/19 14:53:30;;;;;;;137.57;43.13;;;;;;;;;;8366647;28;20068;-74
2021/12/19 14:57:38;;;;;;;120.03;37.97;;;;;;;;;;8371171;28;20046;-78
2021/12/19 15:01:44;;;;;;;60.08;22.13;;;;;;;;;;8379926;28;20041;-75
2021/12/19 15:05:53;;;;;;;39.65;14.95;;;;;;;;;;8366581;28;20066;-75
2021/12/19 15:10:05;;;;;;;34.22;13.75;;;;;;;;;;8359493;28;20048;-74
2021/12/19 15:14:12;;;;;;;95.30;31.48;;;;;;;;;;8364642;28;20060;-74
2021/12/19 15:18:21;;;;;;;41.47;16.30;;;;;;;;;;8380202;28;20045;-74
2021/12/19 15:22:33;;;;;;;82.93;24.23;;;;;;;;;;8371993;28;20074;-74
2021/12/19 15:26:39;;;;;;;115.40;35.45;;;;;;;;;;8382562;28;20087;-82
2021/12/19 15:30:47;;;;;;;45.50;18.67;;;;;;;;;;8365580;28;20073;-75
2021/12/19 15:34:55;;;;;;;65.68;21.73;;;;;;;;;;8362409;28;20045;-76
2021/12/19 15:39:01;;;;;;;67.20;24.58;;;;;;;;;;8379984;28;20041;-78
2021/12/19 15:43:05;;;;;;;116.72;37.60;;;;;;;;;;8375018;28;20055;-74
2021/12/19 15:47:09;;;;;;;99.70;31.48;;;;;;;;;;8376864;28;20053;-79
2021/12/19 15:51:13;;;;;;;44.30;16.42;;;;;;;;;;8396833;28;20045;-74
2021/12/19 15:55:19;;;;;;;154.23;51.42;;;;;;;;;;8395820;28;20035;-74
2021/12/19 15:59:23;;;;;;;30.42;12.82;;;;;;;;;;8418206;28;20063;-74
2021/12/19 16:03:26;;;;;;;55.20;20.80;;;;;;;;;;8397472;28;20067;-79
2021/12/19 16:08:18;;;;;;;32.47;13.80;;;;;;;;;;8399137;28;20048;-78
2021/12/19 16:17:47;;;;;;;19.58;9.55;;;;;;;;;;8415045;28;20060;-76
2021/12/19 16:22:07;;;;;;;29.63;12.52;;;;;;;;;;8392926;28;20067;-74
2021/12/19 16:26:10;;;;;;;43.65;15.95;;;;;;;;;;8388851;28;20059;-75
2021/12/19 16:30:23;;;;;;;22.02;9.05;;;;;;;;;;8389787;28;20349;-74
2021/12/19 16:34:27;;;;;;;25.02;11.32;;;;;;;;;;8380461;28;20045;-74
2021/12/19 16:38:34;;;;;;;38.97;15.95;;;;;;;;;;8395375;28;20094;-74
2021/12/19 16:47:09;;;;;;;37.10;14.13;;;;;;;;;;8391368;28;20044;-75
2021/12/19 16:51:19;;;;;;;10.82;5.47;;;;;;;;;;8392950;28;20040;-75
2021/12/19 16:55:25;;;;;;;8.15;4.72;;;;;;;;;;8396218;28;20048;-75
2021/12/19 16:59:37;;;;;;;13.95;6.22;;;;;;;;;;8368077;28;20226;-75
2021/12/19 17:03:49;;;;;;;16.23;8.90;;;;;;;;;;8388623;28;20044;-80
2021/12/19 17:07:58;;;;;;;42.85;19.70;;;;;;;;;;8384897;28;20049;-74
2021/12/19 17:12:09;;;;;;;55.38;20.75;;;;;;;;;;8385841;28;20074;-84
2021/12/19 17:16:17;;;;;;;47.95;16.92;;;;;;;;;;8400415;28;20127;-75
2021/12/19 17:20:24;;;;;;;99.10;36.88;;;;;;;;;;8406716;28;20052;-77
2021/12/19 17:24:39;;;;;;;42.03;18.50;;;;;;;;;;8387570;28;20043;-76
2021/12/19 17:33:24;;;;;;;42.78;15.90;;;;;;;;;;8405263;28;20032;-77
2021/12/19 17:37:34;;;;;;;35.10;13.60;;;;;;;;;;8403391;28;20119;-75
2021/12/19 17:41:44;;;;;;;44.28;18.55;;;;;;;;;;8420335;28;20126;-74
2021/12/19 17:45:57;;;;;;;19.80;8.65;;;;;;;;;;8368806;28;20128;-74
2021/12/19 17:50:09;;;;;;;17.10;7.00;;;;;;;;;;8374652;28;20048;-74
2021/12/19 17:54:14;;;;;;;21.45;9.15;;;;;;;;;;8398245;28;20053;-74
2021/12/19 17:58:19;;;;;;;47.95;18.92;;;;;;;;;;8394062;28;20037;-75
2021/12/19 18:02:26;;;;;;;145.10;49.35;;;;;;;;;;8390269;28;20221;-74
2021/12/19 18:06:33;;;;;;;50.65;20.70;;;;;;;;;;8383447;28;20080;-75
2021/12/19 18:10:41;;;;;;;24.02;9.85;;;;;;;;;;8404867;28;20048;-73
2021/12/19 18:14:45;;;;;;;30.02;10.85;;;;;;;;;;8383174;28;20051;-77
2021/12/19 18:18:50;;;;;;;28.83;10.57;;;;;;;;;;8390769;28;20064;-77
2021/12/19 18:22:59;;;;;;;16.58;8.07;;;;;;;;;;8413076;28;20052;-83
2021/12/19 18:27:08;;;;;;;15.50;6.38;;;;;;;;;;8410455;28;20051;-78
2021/12/19 18:31:18;;;;;;;56.50;18.27;;;;;;;;;;8374729;28;20045;-74
2021/12/19 18:35:27;;;;;;;11.25;5.03;;;;;;;;;;8376986;28;20119;-83
2021/12/19 18:39:40;;;;;;;8.00;4.15;;;;;;;;;;8402446;28;20086;-80
2021/12/19 18:43:53;;;;;;;10.10;4.13;;;;;;;;;;8399101;28;20161;-79
2021/12/19 18:48:08;;;;;;;10.82;5.68;;;;;;;;;;8355172;28;20246;-75
2021/12/19 18:52:28;;;;;;;18.52;6.43;;;;;;;;;;8346297;28;20112;-76
2021/12/19 18:56:36;;;;;;;20.25;8.55;;;;;;;;;;8345027;28;20045;-77
2021/12/19 19:00:47;;;;;;;24.75;8.52;;;;;;;;;;8346920;28;20211;-78
2021/12/19 19:04:52;;;;;;;23.60;7.63;;;;;;;;;;8349962;28;20087;-75
2021/12/19 19:08:57;;;;;;;18.88;7.22;;;;;;;;;;8346937;28;20049;-83
2021/12/19 19:13:04;;;;;;;19.13;8.35;;;;;;;;;;8350032;28;20148;-76
2021/12/19 19:17:34;;;;;;;19.27;8.70;;;;;;;;;;8348338;28;20084;-75
2021/12/19 19:21:55;;;;;;;22.48;8.52;;;;;;;;;;8346475;28;20056;-75
2021/12/19 19:26:04;;;;;;;22.60;7.35;;;;;;;;;;8345319;28;20045;-76
2021/12/19 19:30:10;;;;;;;18.00;6.85;;;;;;;;;;8354648;28;20307;-75
2021/12/19 19:34:21;;;;;;;20.90;7.85;;;;;;;;;;8363804;28;20037;-74
2021/12/19 19:38:39;;;;;;;16.23;5.68;;;;;;;;;;8361095;28;20342;-80
2021/12/19 19:51:50;;;;;;;16.38;6.93;;;;;;;;;;8369129;28;20055;-74
2021/12/19 19:56:06;;;;;;;23.90;9.18;;;;;;;;;;8419134;28;20067;-76
2021/12/19 20:00:17;;;;;;;15.20;5.45;;;;;;;;;;8403047;28;20266;-81
2021/12/19 20:04:28;;;;;;;19.83;5.80;;;;;;;;;;8420490;28;20270;-81
2021/12/19 20:08:40;;;;;;;17.17;7.20;;;;;;;;;;8408373;28;20048;-80
2021/12/19 20:12:49;;;;;;;12.70;6.50;;;;;;;;;;8397178;28;20051;-75
2021/12/19 20:17:12;;;;;;;13.27;5.95;;;;;;;;;;8397135;28;20094;-75
2021/12/19 20:21:30;;;;;;;15.68;5.28;;;;;;;;;;8399974;28;20102;-75
2021/12/19 20:25:48;;;;;;;12.43;6.10;;;;;;;;;;8407100;28;20301;-75
2021/12/19 20:29:58;;;;;;;14.68;6.18;;;;;;;;;;8421714;28;20398;-75
2021/12/19 20:34:08;;;;;;;12.18;4.97;;;;;;;;;;8404433;28;20052;-76
2021/12/19 20:38:22;;;;;;;14.85;5.38;;;;;;;;;;8416314;28;20032;-74
2021/12/19 20:42:34;;;;;;;14.35;5.40;;;;;;;;;;8384038;28;20112;-74
2021/12/19 20:46:40;;;;;;;18.33;6.40;;;;;;;;;;8376780;28;20061;-75
2021/12/19 20:50:45;;;;;;;13.90;6.30;;;;;;;;;;8385196;28;20100;-74
2021/12/19 20:54:50;;;;;;;15.20;7.00;;;;;;;;;;8387772;28;20045;-74
2021/12/19 20:58:57;;;;;;;17.10;6.75;;;;;;;;;;8392295;28;20108;-74
2021/12/19 21:03:01;;;;;;;16.42;7.35;;;;;;;;;;8390763;28;20230;-74
2021/12/19 21:07:06;;;;;;;18.83;7.97;;;;;;;;;;8402433;28;20041;-74
2021/12/19 21:11:13;;;;;;;18.10;7.32;;;;;;;;;;8378790;28;20060;-76
2021/12/19 21:19:51;;;;;;;21.00;9.05;;;;;;;;;;8385826;28;20053;-76
2021/12/19 21:23:55;;;;;;;17.15;6.63;;;;;;;;;;8399334;28;20084;-77
2021/12/19 21:28:00;;;;;;;21.63;8.07;;;;;;;;;;8374689;28;20052;-75
2021/12/19 21:32:09;;;;;;;21.35;8.25;;;;;;;;;;8389673;28;20056;-75
2021/12/19 21:40:42;;;;;;;17.52;8.80;;;;;;;;;;8391164;28;20116;-77
2021/12/19 21:44:49;;;;;;;18.55;7.72;;;;;;;;;;8374101;28;20040;-74
2021/12/19 21:49:00;;;;;;;22.20;9.00;;;;;;;;;;8355822;28;20057;-75
2021/12/19 21:53:04;;;;;;;15.88;6.88;;;;;;;;;;8355697;28;20056;-75
2021/12/19 21:57:08;;;;;;;16.88;8.40;;;;;;;;;;8362048;28;20064;-79
2021/12/19 22:01:16;;;;;;;15.27;5.57;;;;;;;;;;8359639;28;20041;-75
2021/12/19 22:05:27;;;;;;;15.20;6.53;;;;;;;;;;8358355;28;20041;-75
2021/12/19 22:09:33;;;;;;;15.18;6.05;;;;;;;;;;8355218;28;20049;-75
2021/12/19 22:18:07;;;;;;;12.48;5.28;;;;;;;;;;8359472;28;20050;-75
2021/12/19 22:22:21;;;;;;;14.18;5.30;;;;;;;;;;8359874;28;20095;-75
2021/12/19 22:26:32;;;;;;;13.05;5.72;;;;;;;;;;8360388;28;20245;-76
2021/12/19 22:30:59;;;;;;;11.18;5.28;;;;;;;;;;8359622;28;20219;-76
2021/12/19 22:35:05;;;;;;;18.75;6.38;;;;;;;;;;8360341;28;20045;-74
2021/12/19 22:39:12;;;;;;;27.35;8.40;;;;;;;;;;8358361;28;20053;-76
2021/12/19 22:43:17;;;;;;;25.13;10.30;;;;;;;;;;8358707;28;20056;-75
2021/12/19 22:47:24;;;;;;;30.33;8.70;;;;;;;;;;8371417;28;20068;-74
2021/12/19 22:51:31;;;;;;;26.83;8.85;;;;;;;;;;8391522;28;20049;-74
2021/12/19 22:55:43;;;;;;;25.20;7.97;;;;;;;;;;8391932;28;20044;-79
2021/12/19 23:00:01;;;;;;;33.33;7.57;;;;;;;;;;8373760;28;20334;-77
2021/12/19 23:04:06;;;;;;;20.77;7.47;;;;;;;;;;8373911;28;20055;-75
2021/12/19 23:08:14;;;;;;;30.17;9.00;;;;;;;;;;8373676;28;20104;-75
2021/12/19 23:12:30;;;;;;;26.83;8.25;;;;;;;;;;8373432;28;20456;-80
2021/12/19 23:16:58;;;;;;;21.88;8.20;;;;;;;;;;8374075;28;20045;-78
2021/12/19 23:21:04;;;;;;;23.98;7.88;;;;;;;;;;8390751;28;20053;-77
2021/12/19 23:25:12;;;;;;;13.57;6.18;;;;;;;;;;8379543;28;20056;-75
2021/12/19 23:29:22;;;;;;;14.85;5.72;;;;;;;;;;8396359;28;20108;-74
2021/12/19 23:34:01;;;;;;;15.70;5.90;;;;;;;;;;8396557;28;20327;-74
2021/12/19 23:38:20;;;;;;;20.73;6.38;;;;;;;;;;8375187;28;20045;-75
2021/12/19 23:42:37;;;;;;;21.65;6.93;;;;;;;;;;8373716;28;20061;-74
2021/12/19 23:46:47;;;;;;;20.13;6.10;;;;;;;;;;8391156;28;20061;-74
2021/12/19 23:50:51;;;;;;;19.25;6.28;;;;;;;;;;8394188;28;20045;-76
2021/12/19 23:54:57;;;;;;;23.20;6.43;;;;;;;;;;8393240;28;20047;-74
2021/12/19 23:59:02;;;;;;;34.38;8.13;;;;;;;;;;8394891;28;20075;-78
